createdAt,value
2022-10-01T00:07:17.642Z,21.10
2022-10-01T00:22:19.389Z,19.77
2022-10-01T00:37:22.587Z,17.98
2022-10-01T00:52:29.343Z,15.38
2022-10-01T01:07:33.424Z,18.33
2022-10-01T01:22:42.777Z,17.07
2022-10-01T01:37:51.482Z,15.88
2022-10-01T01:52:54.143Z,18.00
2022-10-01T02:08:16.770Z,16.70
2022-10-01T02:23:25.603Z,20.77
2022-10-01T02:38:28.980Z,17.67
2022-10-01T02:54:04.083Z,83.17
2022-10-01T03:09:08.870Z,69.03
2022-10-01T03:24:10.680Z,69.32
2022-10-01T03:39:12.662Z,53.70
2022-10-01T03:54:14.737Z,33.80
2022-10-01T04:09:16.591Z,50.87
2022-10-01T04:24:18.322Z,48.73
2022-10-01T04:39:20.255Z,71.73
2022-10-01T04:54:22.047Z,108.80
2022-10-01T05:09:23.813Z,80.60
2022-10-01T05:24:26.334Z,28.73
2022-10-01T05:39:28.323Z,19.38
2022-10-01T05:54:30.101Z,18.73
2022-10-01T06:09:31.862Z,18.15
2022-10-01T06:24:34.102Z,14.38
2022-10-01T06:39:35.964Z,8.95
2022-10-01T06:54:37.771Z,9.07
2022-10-01T07:09:39.911Z,9.35
2022-10-01T07:24:42.096Z,9.93
2022-10-01T07:39:44.488Z,7.80
2022-10-01T07:54:48.172Z,8.83
2022-10-01T08:09:49.959Z,8.43
2022-10-01T08:24:51.733Z,9.80
2022-10-01T08:39:54.863Z,8.02
2022-10-01T08:55:16.331Z,7.47
2022-10-01T09:10:25.051Z,12.48
2022-10-01T09:25:27.596Z,11.68
2022-10-01T09:40:39.223Z,16.83
2022-10-01T09:55:44.478Z,18.60
2022-10-01T10:10:58.532Z,22.35
2022-10-01T10:26:06.382Z,22.50
2022-10-01T10:41:19.872Z,19.75
2022-10-01T10:56:25.539Z,21.80
2022-10-01T11:11:55.276Z,22.15
2022-10-01T11:27:11.312Z,24.20
2022-10-01T11:42:22.356Z,23.27
2022-10-01T11:57:44.779Z,16.63
2022-10-01T12:12:58.260Z,16.85
2022-10-01T12:28:12.717Z,12.27
2022-10-01T12:44:01.069Z,11.23
2022-10-01T12:59:19.694Z,9.57
2022-10-01T13:14:22.700Z,10.40
2022-10-01T13:29:55.897Z,12.00
2022-10-01T13:45:22.287Z,11.15
2022-10-01T14:00:24.496Z,12.45
2022-10-01T14:15:51.472Z,10.00
2022-10-01T14:31:03.633Z,59.38
2022-10-01T14:46:12.876Z,12.50
2022-10-01T15:01:23.250Z,19.23
2022-10-01T15:16:28.108Z,13.30
2022-10-01T15:31:30.532Z,14.32
2022-10-01T15:46:36.206Z,17.30
2022-10-01T16:01:40.251Z,14.65
2022-10-01T16:16:42.151Z,17.02
2022-10-01T16:31:45.414Z,17.60
2022-10-01T16:46:49.807Z,15.75
2022-10-01T17:01:54.994Z,14.73
2022-10-01T17:16:56.972Z,14.20
2022-10-01T17:31:58.945Z,16.80
2022-10-01T17:47:01.024Z,11.48
2022-10-01T18:02:13.923Z,10.80
2022-10-01T18:17:25.355Z,8.82
2022-10-01T18:32:33.372Z,9.20
2022-10-01T18:47:44.098Z,6.70
2022-10-01T19:03:10.095Z,12.32
2022-10-01T19:18:24.000Z,12.00
2022-10-01T19:33:25.953Z,8.63
2022-10-01T19:48:44.427Z,8.55
2022-10-01T20:03:59.695Z,10.98
2022-10-01T20:19:39.719Z,11.48
2022-10-01T20:35:03.089Z,11.05
2022-10-01T20:50:12.460Z,16.90
2022-10-01T21:05:33.505Z,11.27
2022-10-01T21:21:01.247Z,13.55
2022-10-01T21:36:07.895Z,12.07
2022-10-01T21:51:17.685Z,15.63
2022-10-01T22:06:35.351Z,11.68
2022-10-01T22:21:42.298Z,11.50
2022-10-01T22:36:50.594Z,13.85
2022-10-01T22:52:09.230Z,14.05
2022-10-01T23:07:41.050Z,12.95
2022-10-01T23:23:19.765Z,10.80
2022-10-01T23:38:24.383Z,14.60
2022-10-01T23:54:03.494Z,12.30
